createdAt,value
2023-03-10T00:01:25.018Z,21.01
2023-03-10T00:03:54.746Z,21.03
2023-03-10T00:06:25.560Z,21.05
2023-03-10T00:08:54.408Z,21.08
2023-03-10T00:11:23.598Z,21.11
2023-03-10T00:13:51.997Z,21.14
2023-03-10T00:16:26.924Z,21.19
2023-03-10T00:18:55.974Z,21.22
2023-03-10T00:21:30.755Z,21.27
2023-03-10T00:24:00.126Z,21.32
2023-03-10T00:26:29.987Z,21.37
2023-03-10T00:28:58.528Z,21.43
2023-03-10T00:31:28.709Z,21.48
2023-03-10T00:33:58.227Z,21.52
2023-03-10T00:36:29.337Z,21.57
2023-03-10T00:39:01.805Z,21.62
2023-03-10T00:41:32.300Z,21.69
2023-03-10T00:44:01.913Z,21.76
2023-03-10T00:46:34.031Z,21.83
2023-03-10T00:49:02.324Z,21.89
2023-03-10T00:51:30.635Z,21.94
2023-03-10T00:54:00.231Z,22.00
2023-03-10T00:56:29.589Z,22.07
2023-03-10T00:59:00.944Z,22.12
2023-03-10T01:01:30.552Z,22.17
2023-03-10T01:04:01.377Z,22.24
2023-03-10T01:06:29.984Z,22.30
2023-03-10T01:08:58.301Z,22.37
2023-03-10T01:11:28.737Z,22.42
2023-03-10T01:14:03.221Z,22.49
2023-03-10T01:16:32.296Z,22.55
2023-03-10T01:19:01.258Z,22.63
2023-03-10T01:21:32.828Z,22.71
2023-03-10T01:24:02.145Z,22.76
2023-03-10T01:26:31.369Z,22.83
2023-03-10T01:28:59.855Z,22.90
2023-03-10T01:31:28.239Z,22.96
2023-03-10T01:33:56.570Z,23.02
2023-03-10T01:36:27.462Z,23.10
2023-03-10T01:38:57.503Z,23.17
2023-03-10T01:41:26.340Z,23.24
2023-03-10T01:43:58.994Z,23.30
2023-03-10T01:46:36.407Z,23.37
2023-03-10T01:49:14.203Z,23.43
2023-03-10T01:51:47.046Z,23.50
2023-03-10T01:54:21.717Z,23.56
2023-03-10T01:56:53.921Z,23.62
2023-03-10T01:59:23.559Z,23.71
2023-03-10T02:01:53.859Z,23.77
2023-03-10T02:04:49.504Z,23.85
2023-03-10T02:07:22.529Z,23.90
2023-03-10T02:09:53.654Z,23.95
2023-03-10T02:12:22.372Z,24.04
2023-03-10T02:14:53.147Z,24.10
2023-03-10T02:17:24.400Z,24.16
2023-03-10T02:19:59.883Z,24.22
2023-03-10T02:22:28.703Z,24.27
2023-03-10T02:25:17.096Z,24.33
2023-03-10T02:27:45.634Z,24.37
2023-03-10T02:30:28.943Z,24.42
2023-03-10T02:33:01.919Z,24.49
2023-03-10T02:35:32.443Z,24.55
2023-03-10T02:38:00.965Z,24.63
2023-03-10T02:40:44.157Z,24.72
2023-03-10T02:43:35.902Z,24.81
2023-03-10T02:46:08.727Z,24.89
2023-03-10T02:48:39.897Z,24.96
2023-03-10T02:51:14.875Z,25.03
2023-03-10T02:53:44.005Z,25.14
2023-03-10T02:56:12.846Z,25.19
2023-03-10T02:58:41.580Z,25.27
2023-03-10T03:01:10.110Z,25.34
2023-03-10T03:03:39.098Z,25.42
2023-03-10T03:06:07.977Z,25.49
2023-03-10T03:08:36.520Z,25.55
2023-03-10T03:11:05.194Z,25.63
2023-03-10T03:13:33.521Z,25.69
2023-03-10T03:16:02.015Z,25.77
2023-03-10T03:18:30.372Z,25.82
2023-03-10T03:20:58.654Z,25.91
2023-03-10T03:23:26.946Z,25.99
2023-03-10T03:25:55.240Z,26.07
2023-03-10T03:28:23.544Z,26.13
2023-03-10T03:30:51.825Z,26.17
2023-03-10T03:33:20.151Z,26.26
2023-03-10T03:35:48.554Z,26.32
2023-03-10T03:38:17.100Z,26.39
2023-03-10T03:40:46.461Z,26.46
2023-03-10T03:43:15.644Z,26.53
2023-03-10T03:45:43.953Z,26.61
2023-03-10T03:48:15.523Z,26.65
2023-03-10T03:50:43.863Z,26.74
2023-03-10T03:53:12.158Z,26.80
2023-03-10T03:55:40.486Z,26.87
2023-03-10T03:58:08.837Z,26.95
2023-03-10T04:00:37.148Z,27.01
2023-03-10T04:03:06.235Z,27.10
2023-03-10T04:05:34.803Z,27.17
2023-03-10T04:08:03.150Z,27.25
2023-03-10T04:10:31.658Z,27.28
2023-03-10T04:13:00.112Z,27.34
2023-03-10T04:15:28.527Z,27.36
2023-03-10T04:17:58.825Z,27.41
2023-03-10T04:20:27.560Z,27.48
2023-03-10T04:22:55.874Z,27.56
2023-03-10T04:25:24.236Z,27.64
2023-03-10T04:27:52.540Z,27.72
2023-03-10T04:30:22.006Z,27.81
2023-03-10T04:32:50.351Z,27.88
2023-03-10T04:35:18.819Z,27.93
2023-03-10T04:37:47.183Z,28.01
2023-03-10T04:40:16.586Z,28.10
2023-03-10T04:42:44.893Z,28.17
2023-03-10T04:45:13.770Z,28.25
2023-03-10T04:47:42.115Z,28.33
2023-03-10T04:50:12.358Z,28.39
2023-03-10T04:52:40.824Z,28.46
2023-03-10T04:55:09.592Z,28.54
2023-03-10T04:57:37.866Z,28.61
2023-03-10T05:00:08.952Z,28.69
2023-03-10T05:02:38.527Z,28.75
2023-03-10T05:05:07.479Z,28.80
2023-03-10T05:07:35.865Z,28.82
2023-03-10T05:10:04.990Z,28.87
2023-03-10T05:12:33.346Z,28.92
2023-03-10T05:15:01.745Z,28.97
2023-03-10T05:17:31.173Z,29.01
2023-03-10T05:19:59.818Z,29.04
2023-03-10T05:22:28.180Z,29.11
2023-03-10T05:24:56.468Z,29.12
2023-03-10T05:27:25.557Z,29.18
2023-03-10T05:29:53.895Z,29.23
2023-03-10T05:32:22.336Z,29.27
2023-03-10T05:34:50.674Z,29.30
2023-03-10T05:37:19.599Z,29.34
2023-03-10T05:39:47.935Z,29.36
2023-03-10T05:42:16.253Z,29.37
2023-03-10T05:44:44.568Z,29.39
2023-03-10T05:47:14.988Z,29.41
2023-03-10T05:49:43.332Z,29.44
2023-03-10T05:52:12.120Z,29.48
2023-03-10T05:54:40.415Z,29.50
2023-03-10T05:57:08.730Z,29.53
2023-03-10T05:59:37.030Z,29.59
2023-03-10T06:02:05.332Z,29.67
2023-03-10T06:04:34.308Z,29.75
2023-03-10T06:07:03.531Z,29.81
2023-03-10T06:09:33.308Z,29.87
2023-03-10T06:12:01.933Z,29.89
2023-03-10T06:14:30.286Z,29.92
2023-03-10T06:16:58.977Z,29.95
2023-03-10T06:19:28.391Z,29.96
2023-03-10T06:21:56.733Z,29.98
2023-03-10T06:24:25.008Z,30.02
2023-03-10T06:26:53.290Z,30.06
2023-03-10T06:29:21.623Z,30.10
2023-03-10T06:31:50.323Z,30.11
2023-03-10T06:34:18.691Z,30.13
2023-03-10T06:36:47.003Z,30.12
2023-03-10T06:39:15.326Z,30.16
2023-03-10T06:41:43.621Z,30.17
2023-03-10T06:44:19.911Z,30.20
2023-03-10T06:46:48.534Z,30.25
2023-03-10T06:49:16.852Z,30.30
2023-03-10T06:51:45.143Z,30.36
2023-03-10T06:54:13.624Z,30.38
2023-03-10T06:56:41.961Z,30.40
2023-03-10T06:59:10.274Z,30.44
2023-03-10T07:01:38.773Z,30.45
2023-03-10T07:04:07.268Z,30.49
2023-03-10T07:06:35.647Z,30.54
2023-03-10T07:09:04.884Z,30.60
2023-03-10T07:11:33.599Z,30.65
2023-03-10T07:14:01.983Z,30.71
2023-03-10T07:16:30.341Z,30.78
2023-03-10T07:18:58.671Z,30.79
2023-03-10T07:21:27.072Z,30.80
2023-03-10T07:23:55.365Z,30.80
2023-03-10T07:26:23.825Z,30.82
2023-03-10T07:28:52.149Z,30.82
2023-03-10T07:31:20.525Z,30.81
2023-03-10T07:33:50.507Z,30.83
2023-03-10T07:36:20.536Z,30.85
2023-03-10T07:38:49.209Z,30.85
2023-03-10T07:41:20.171Z,30.86
2023-03-10T07:43:49.294Z,30.87
2023-03-10T07:46:17.795Z,30.93
2023-03-10T07:48:46.458Z,30.92
2023-03-10T07:51:15.250Z,30.92
2023-03-10T07:53:43.701Z,30.94
2023-03-10T07:56:14.021Z,30.95
2023-03-10T07:58:42.858Z,30.96
2023-03-10T08:01:19.835Z,30.94
2023-03-10T08:03:48.423Z,30.97
2023-03-10T08:06:23.457Z,30.97
2023-03-10T08:08:53.056Z,30.96
2023-03-10T08:11:22.366Z,30.95
2023-03-10T08:13:50.714Z,30.93
2023-03-10T08:16:21.363Z,30.90
2023-03-10T08:18:53.075Z,30.89
2023-03-10T08:21:21.633Z,30.85
2023-03-10T08:23:49.992Z,30.85
2023-03-10T08:26:20.224Z,30.85
2023-03-10T08:28:50.656Z,30.86
2023-03-10T08:31:21.836Z,30.88
2023-03-10T08:33:50.640Z,30.84
2023-03-10T08:36:22.649Z,30.83
2023-03-10T08:38:55.354Z,30.83
2023-03-10T08:41:32.426Z,30.82
2023-03-10T08:44:01.360Z,30.80
2023-03-10T08:46:32.909Z,30.82
2023-03-10T08:49:04.508Z,30.79
2023-03-10T08:51:34.791Z,30.80
2023-03-10T08:54:04.157Z,30.81
2023-03-10T08:56:32.934Z,30.81
2023-03-10T08:59:01.854Z,30.79
2023-03-10T09:01:33.267Z,30.81
2023-03-10T09:04:02.966Z,30.77
2023-03-10T09:06:31.932Z,30.74
2023-03-10T09:09:00.346Z,30.73
2023-03-10T09:11:36.985Z,30.73
2023-03-10T09:14:07.609Z,30.70
2023-03-10T09:16:36.328Z,30.68
2023-03-10T09:19:05.107Z,30.67
2023-03-10T09:21:33.987Z,30.62
2023-03-10T09:24:03.634Z,30.60
2023-03-10T09:26:32.435Z,30.59
2023-03-10T09:29:00.741Z,30.52
2023-03-10T09:31:35.248Z,30.50
2023-03-10T09:34:04.227Z,30.48
2023-03-10T09:36:33.221Z,30.42
2023-03-10T09:39:02.390Z,30.39
2023-03-10T09:41:39.767Z,30.37
2023-03-10T09:44:37.983Z,30.31
2023-03-10T09:47:11.935Z,30.25
2023-03-10T09:50:15.346Z,30.18
2023-03-10T09:52:53.599Z,30.10
2023-03-10T09:55:31.700Z,30.04
2023-03-10T09:58:01.541Z,29.99
2023-03-10T10:00:39.039Z,29.95
2023-03-10T10:03:16.640Z,29.89
2023-03-10T10:05:46.503Z,29.83
2023-03-10T10:08:31.909Z,29.77
2023-03-10T10:11:02.614Z,29.72
2023-03-10T10:13:31.990Z,29.66
2023-03-10T10:16:33.638Z,29.60
2023-03-10T10:19:15.440Z,29.53
2023-03-10T10:22:11.557Z,29.46
2023-03-10T10:24:41.491Z,29.38
2023-03-10T10:27:09.929Z,29.32
2023-03-10T10:29:43.201Z,29.27
2023-03-10T10:32:13.742Z,29.22
2023-03-10T10:34:50.153Z,29.17
2023-03-10T10:37:30.411Z,29.11
2023-03-10T10:40:01.268Z,29.05
2023-03-10T10:42:35.055Z,28.99
2023-03-10T10:45:08.902Z,28.94
2023-03-10T10:47:47.280Z,28.87
2023-03-10T10:50:30.251Z,28.79
2023-03-10T10:53:35.301Z,28.70
2023-03-10T10:56:15.415Z,28.62
2023-03-10T10:59:02.187Z,28.54
2023-03-10T11:01:49.756Z,28.45
2023-03-10T11:04:18.575Z,28.36
2023-03-10T11:06:47.111Z,28.29
2023-03-10T11:09:21.361Z,28.20
2023-03-10T11:12:31.291Z,28.12
2023-03-10T11:15:24.658Z,28.03
2023-03-10T11:18:20.234Z,27.94
2023-03-10T11:21:08.642Z,27.85
2023-03-10T11:24:06.790Z,27.75
2023-03-10T11:27:00.404Z,27.68
2023-03-10T11:29:34.644Z,27.61
2023-03-10T11:32:09.007Z,27.55
2023-03-10T11:34:43.453Z,27.50
2023-03-10T11:37:52.867Z,27.45
2023-03-10T11:40:29.445Z,27.42
2023-03-10T11:43:17.537Z,27.36
2023-03-10T11:45:45.786Z,27.28
2023-03-10T11:48:57.927Z,27.23
2023-03-10T11:51:29.913Z,27.17
2023-03-10T11:54:06.371Z,27.12
2023-03-10T11:56:34.690Z,27.07
2023-03-10T11:59:18.255Z,27.03
2023-03-10T12:01:49.840Z,27.00
2023-03-10T12:04:38.882Z,26.95
2023-03-10T12:07:16.396Z,26.90
2023-03-10T12:09:51.229Z,26.85
2023-03-10T12:12:33.248Z,26.79
2023-03-10T12:15:06.967Z,26.75
2023-03-10T12:17:35.360Z,26.70
2023-03-10T12:20:21.731Z,26.66
2023-03-10T12:23:01.606Z,26.64
2023-03-10T12:25:34.158Z,26.60
2023-03-10T12:28:17.684Z,26.55
2023-03-10T12:30:57.632Z,26.52
2023-03-10T12:33:32.030Z,26.46
2023-03-10T12:36:21.343Z,26.41
2023-03-10T12:39:00.699Z,26.35
2023-03-10T12:41:28.927Z,26.29
2023-03-10T12:44:17.685Z,26.25
2023-03-10T12:47:02.004Z,26.19
2023-03-10T12:49:36.293Z,26.15
2023-03-10T12:52:19.624Z,26.09
2023-03-10T12:55:15.403Z,26.03
2023-03-10T12:58:23.687Z,25.96
2023-03-10T13:01:07.078Z,25.89
2023-03-10T13:03:48.544Z,25.85
2023-03-10T13:06:21.708Z,25.81
2023-03-10T13:08:52.342Z,25.78
2023-03-10T13:11:41.221Z,25.75
2023-03-10T13:14:16.144Z,25.71
2023-03-10T13:16:58.857Z,25.67
2023-03-10T13:19:29.679Z,25.64
2023-03-10T13:21:58.273Z,25.64
2023-03-10T13:24:31.007Z,25.63
2023-03-10T13:27:17.996Z,25.62
2023-03-10T13:30:13.819Z,25.61
2023-03-10T13:35:38.260Z,25.53
2023-03-10T13:38:22.662Z,25.49
2023-03-10T13:40:58.102Z,25.47
2023-03-10T13:43:46.338Z,25.43
2023-03-10T13:46:19.394Z,25.40
2023-03-10T13:48:48.953Z,25.37
2023-03-10T13:51:24.032Z,25.34
2023-03-10T13:53:55.929Z,25.30
2023-03-10T13:56:26.109Z,25.26
2023-03-10T13:58:59.325Z,25.22
2023-03-10T14:01:31.583Z,25.20
2023-03-10T14:04:09.410Z,25.16
2023-03-10T14:06:38.319Z,25.12
2023-03-10T14:09:24.370Z,25.07
2023-03-10T14:11:53.130Z,25.02
2023-03-10T14:14:33.268Z,24.96
2023-03-10T14:17:07.560Z,24.92
2023-03-10T14:19:45.041Z,24.88
2023-03-10T14:22:44.445Z,24.86
2023-03-10T14:25:21.359Z,24.85
2023-03-10T14:27:59.789Z,24.83
2023-03-10T14:30:33.190Z,24.81
2023-03-10T14:33:02.991Z,24.78
2023-03-10T14:35:31.577Z,24.74
2023-03-10T14:37:59.880Z,24.70
2023-03-10T14:40:28.298Z,24.69
2023-03-10T14:43:02.379Z,24.68
2023-03-10T14:45:36.519Z,24.65
2023-03-10T14:48:26.699Z,24.64
2023-03-10T14:50:56.935Z,24.63
2023-03-10T14:53:27.647Z,24.60
2023-03-10T14:55:58.336Z,24.59
2023-03-10T14:58:32.632Z,24.55
2023-03-10T15:01:02.101Z,24.53
2023-03-10T15:03:30.453Z,24.52
2023-03-10T15:05:58.951Z,24.50
2023-03-10T15:08:29.862Z,24.49
2023-03-10T15:10:58.924Z,24.48
2023-03-10T15:13:27.280Z,24.46
2023-03-10T15:15:55.745Z,24.45
2023-03-10T15:18:27.879Z,24.43
2023-03-10T15:21:01.243Z,24.41
2023-03-10T15:23:30.857Z,24.39
2023-03-10T15:26:00.277Z,24.37
2023-03-10T15:28:28.624Z,24.33
2023-03-10T15:30:57.442Z,24.32
2023-03-10T15:33:25.901Z,24.32
2023-03-10T15:35:55.206Z,24.27
2023-03-10T15:38:23.813Z,24.25
2023-03-10T15:40:52.204Z,24.21
2023-03-10T15:43:20.521Z,24.21
2023-03-10T15:45:51.146Z,24.16
2023-03-10T15:48:19.698Z,24.17
2023-03-10T15:50:48.152Z,24.16
2023-03-10T15:53:16.684Z,24.15
2023-03-10T15:55:44.972Z,24.13
2023-03-10T15:58:14.016Z,24.12
2023-03-10T16:00:44.702Z,24.09
2023-03-10T16:03:18.160Z,24.08
2023-03-10T16:05:50.212Z,24.07
2023-03-10T16:08:20.074Z,24.05
2023-03-10T16:10:55.880Z,24.05
2023-03-10T16:13:25.820Z,24.04
2023-03-10T16:15:54.161Z,24.05
2023-03-10T16:18:22.579Z,24.05
2023-03-10T16:21:00.708Z,24.04
2023-03-10T16:23:31.701Z,24.05
2023-03-10T16:26:07.239Z,24.05
2023-03-10T16:28:37.685Z,24.05
2023-03-10T16:31:07.451Z,24.06
2023-03-10T16:33:36.052Z,24.04
2023-03-10T16:36:07.021Z,24.03
2023-03-10T16:38:36.721Z,24.02
2023-03-10T16:41:05.270Z,24.01
2023-03-10T16:43:34.504Z,24.00
2023-03-10T16:46:27.131Z,23.99
2023-03-10T16:48:56.371Z,23.97
2023-03-10T16:51:27.121Z,23.94
2023-03-10T16:54:00.928Z,23.96
2023-03-10T16:56:31.018Z,23.97
2023-03-10T16:58:59.881Z,23.96
2023-03-10T17:01:28.425Z,23.96
2023-03-10T17:03:57.487Z,23.94
2023-03-10T17:06:32.761Z,23.92
2023-03-10T17:09:02.288Z,23.90
2023-03-10T17:11:33.401Z,23.89
2023-03-10T17:14:05.083Z,23.87
2023-03-10T17:16:35.108Z,23.87
2023-03-10T17:19:06.485Z,23.85
2023-03-10T17:21:40.839Z,23.83
2023-03-10T17:24:09.736Z,23.81
2023-03-10T17:26:38.583Z,23.80
2023-03-10T17:29:07.210Z,23.79
2023-03-10T17:31:35.698Z,23.79
2023-03-10T17:34:06.701Z,23.79
2023-03-10T17:36:35.294Z,23.78
2023-03-10T17:39:05.566Z,23.74
2023-03-10T17:41:36.109Z,23.72
2023-03-10T17:44:07.474Z,23.71
2023-03-10T17:46:35.876Z,23.70
2023-03-10T17:49:04.377Z,23.69
2023-03-10T17:51:32.781Z,23.69
2023-03-10T17:54:02.630Z,23.68
2023-03-10T17:56:31.219Z,23.68
2023-03-10T17:58:59.908Z,23.66
2023-03-10T18:01:30.595Z,23.65
2023-03-10T18:04:00.855Z,23.62
2023-03-10T18:06:34.877Z,23.61
2023-03-10T18:09:06.333Z,23.60
2023-03-10T18:11:35.241Z,23.59
2023-03-10T18:14:04.169Z,23.58
2023-03-10T18:16:36.739Z,23.59
2023-03-10T18:19:05.341Z,23.59
2023-03-10T18:21:33.792Z,23.57
2023-03-10T18:24:02.167Z,23.57
2023-03-10T18:26:34.740Z,23.56
2023-03-10T18:29:03.115Z,23.57
2023-03-10T18:31:33.794Z,23.57
2023-03-10T18:34:02.807Z,23.56
2023-03-10T18:36:31.959Z,23.56
2023-03-10T18:39:00.999Z,23.55
2023-03-10T18:41:31.710Z,23.55
2023-03-10T18:44:01.432Z,23.54
2023-03-10T18:46:30.595Z,23.54
2023-03-10T18:48:59.341Z,23.53
2023-03-10T18:51:29.408Z,23.51
2023-03-10T18:53:57.851Z,23.51
2023-03-10T18:56:29.763Z,23.49
2023-03-10T18:58:58.436Z,23.49
2023-03-10T19:01:27.824Z,23.47
2023-03-10T19:03:56.153Z,23.46
2023-03-10T19:06:24.457Z,23.43
2023-03-10T19:08:53.715Z,23.43
2023-03-10T19:11:25.105Z,23.43
2023-03-10T19:13:53.525Z,23.42
2023-03-10T19:16:22.476Z,23.40
2023-03-10T19:18:50.882Z,23.39
2023-03-10T19:21:21.354Z,23.37
2023-03-10T19:23:51.231Z,23.33
2023-03-10T19:26:19.685Z,23.33
2023-03-10T19:28:47.967Z,23.31
2023-03-10T19:31:17.635Z,23.30
2023-03-10T19:33:45.956Z,23.30
2023-03-10T19:36:15.299Z,23.28
2023-03-10T19:38:45.389Z,23.27
2023-03-10T19:41:18.599Z,23.26
2023-03-10T19:43:50.060Z,23.24
2023-03-10T19:46:19.772Z,23.22
2023-03-10T19:48:48.334Z,23.20
2023-03-10T19:51:25.611Z,23.21
2023-03-10T19:53:55.508Z,23.18
2023-03-10T19:56:26.374Z,23.16
2023-03-10T19:58:54.756Z,23.15
2023-03-10T20:01:27.074Z,23.12
2023-03-10T20:04:02.039Z,23.10
2023-03-10T20:06:30.582Z,23.10
2023-03-10T20:08:58.932Z,23.07
2023-03-10T20:11:27.467Z,23.07
2023-03-10T20:13:55.864Z,23.08
2023-03-10T20:16:24.811Z,23.07
2023-03-10T20:18:53.289Z,23.08
2023-03-10T20:21:21.632Z,23.06
2023-03-10T20:23:50.060Z,23.06
2023-03-10T20:26:19.280Z,23.04
2023-03-10T20:28:49.563Z,23.04
2023-03-10T20:31:20.423Z,23.03
2023-03-10T20:33:49.367Z,23.03
2023-03-10T20:36:17.729Z,23.02
2023-03-10T20:38:47.744Z,23.01
2023-03-10T20:41:18.083Z,23.01
2023-03-10T20:43:46.882Z,23.00
2023-03-10T20:46:18.468Z,22.98
2023-03-10T20:48:48.981Z,22.96
2023-03-10T20:51:18.965Z,22.93
2023-03-10T20:53:48.034Z,22.91
2023-03-10T20:56:17.504Z,22.90
2023-03-10T20:58:45.850Z,22.86
2023-03-10T21:01:20.006Z,22.84
2023-03-10T21:03:48.951Z,22.82
2023-03-10T21:06:17.271Z,22.80
2023-03-10T21:08:45.758Z,22.78
2023-03-10T21:11:14.053Z,22.76
2023-03-10T21:13:42.544Z,22.76
2023-03-10T21:16:11.661Z,22.75
2023-03-10T21:18:40.762Z,22.74
2023-03-10T21:21:10.469Z,22.71
2023-03-10T21:23:39.562Z,22.72
2023-03-10T21:26:18.273Z,22.71
2023-03-10T21:28:47.012Z,22.71
2023-03-10T21:31:16.334Z,22.70
2023-03-10T21:33:44.696Z,22.67
2023-03-10T21:36:16.606Z,22.67
2023-03-10T21:38:44.994Z,22.64
2023-03-10T21:41:19.828Z,22.63
2023-03-10T21:43:48.960Z,22.61
2023-03-10T21:46:17.529Z,22.60
2023-03-10T21:48:45.865Z,22.59
2023-03-10T21:51:16.156Z,22.59
2023-03-10T21:53:44.582Z,22.56
2023-03-10T21:56:13.500Z,22.54
2023-03-10T21:58:41.807Z,22.51
2023-03-10T22:01:10.167Z,22.50
2023-03-10T22:03:38.550Z,22.48
2023-03-10T22:06:07.316Z,22.44
2023-03-10T22:08:37.607Z,22.42
2023-03-10T22:11:07.889Z,22.41
2023-03-10T22:13:38.231Z,22.39
2023-03-10T22:16:09.020Z,22.38
2023-03-10T22:18:37.905Z,22.39
2023-03-10T22:21:06.507Z,22.39
2023-03-10T22:23:34.809Z,22.40
2023-03-10T22:26:03.174Z,22.41
2023-03-10T22:28:31.485Z,22.41
2023-03-10T22:30:59.865Z,22.40
2023-03-10T22:33:28.183Z,22.41
2023-03-10T22:35:56.514Z,22.38
2023-03-10T22:38:24.856Z,22.40
2023-03-10T22:40:53.155Z,22.40
2023-03-10T22:43:21.447Z,22.41
2023-03-10T22:45:49.812Z,22.42
2023-03-10T22:48:18.105Z,22.42
2023-03-10T22:50:47.615Z,22.43
2023-03-10T22:53:19.188Z,22.43
2023-03-10T22:55:49.319Z,22.43
2023-03-10T22:58:17.582Z,22.43
2023-03-10T23:00:47.266Z,22.43
2023-03-10T23:03:16.343Z,22.43
2023-03-10T23:05:46.023Z,22.42
2023-03-10T23:08:14.836Z,22.43
2023-03-10T23:10:43.731Z,22.42
2023-03-10T23:13:16.362Z,22.42
2023-03-10T23:15:45.807Z,22.41
2023-03-10T23:18:14.324Z,22.41
2023-03-10T23:20:45.797Z,22.42
2023-03-10T23:23:19.239Z,22.40
2023-03-10T23:25:51.892Z,22.41
2023-03-10T23:28:21.883Z,22.40
2023-03-10T23:30:51.279Z,22.40
2023-03-10T23:33:23.314Z,22.40
2023-03-10T23:35:54.693Z,22.41
2023-03-10T23:38:25.234Z,22.40
2023-03-10T23:40:54.691Z,22.40
2023-03-10T23:43:23.330Z,22.41
2023-03-10T23:45:51.767Z,22.40
2023-03-10T23:48:21.328Z,22.41
2023-03-10T23:50:50.190Z,22.42
2023-03-10T23:53:21.600Z,22.43
2023-03-10T23:55:50.806Z,22.42
2023-03-10T23:58:20.531Z,22.46
